sensor_id;sensor_type;location;lat;lon;timestamp;temperature;humidity
19385;DHT22;9828;54.122;17.974;2023-10-31T00:00:24;9.60;99.90
19385;DHT22;9828;54.122;17.974;2023-10-31T00:05:45;9.60;99.90
19385;DHT22;9828;54.122;17.974;2023-10-31T00:11:07;9.70;99.90
19385;DHT22;9828;54.122;17.974;2023-10-31T00:16:28;9.70;99.90
19385;DHT22;9828;54.122;17.974;2023-10-31T00:21:50;9.80;99.90
19385;DHT22;9828;54.122;17.974;2023-10-31T00:27:11;9.80;99.90
19385;DHT22;9828;54.122;17.974;2023-10-31T00:32:32;9.90;99.90
19385;DHT22;9828;54.122;17.974;2023-10-31T00:37:53;10.00;99.90
19385;DHT22;9828;54.122;17.974;2023-10-31T00:43:14;10.00;99.90
19385;DHT22;9828;54.122;17.974;2023-10-31T00:48:36;10.00;99.90
19385;DHT22;9828;54.122;17.974;2023-10-31T00:53:57;10.00;99.90
19385;DHT22;9828;54.122;17.974;2023-10-31T00:59:18;10.10;99.90
19385;DHT22;9828;54.122;17.974;2023-10-31T01:04:40;10.10;99.90
19385;DHT22;9828;54.122;17.974;2023-10-31T01:10:03;10.10;99.90
19385;DHT22;9828;54.122;17.974;2023-10-31T01:15:24;10.10;99.90
19385;DHT22;9828;54.122;17.974;2023-10-31T01:20:45;10.10;99.90
19385;DHT22;9828;54.122;17.974;2023-10-31T01:26:06;10.10;99.90
19385;DHT22;9828;54.122;17.974;2023-10-31T01:31:28;10.10;99.90
19385;DHT22;9828;54.122;17.974;2023-10-31T01:36:49;10.10;99.90
19385;DHT22;9828;54.122;17.974;2023-10-31T01:42:13;10.10;99.90
19385;DHT22;9828;54.122;17.974;2023-10-31T01:47:35;10.10;99.90
19385;DHT22;9828;54.122;17.974;2023-10-31T01:52:57;10.10;99.90
19385;DHT22;9828;54.122;17.974;2023-10-31T01:58:22;10.10;99.90
19385;DHT22;9828;54.122;17.974;2023-10-31T02:03:44;10.10;99.90
19385;DHT22;9828;54.122;17.974;2023-10-31T02:09:06;10.20;99.90
19385;DHT22;9828;54.122;17.974;2023-10-31T02:14:27;10.20;99.90
19385;DHT22;9828;54.122;17.974;2023-10-31T02:19:49;10.30;99.90
19385;DHT22;9828;54.122;17.974;2023-10-31T02:25:17;10.40;99.90
19385;DHT22;9828;54.122;17.974;2023-10-31T02:30:40;10.40;99.90
19385;DHT22;9828;54.122;17.974;2023-10-31T02:36:02;10.40;99.90
19385;DHT22;9828;54.122;17.974;2023-10-31T02:41:23;10.40;99.90
19385;DHT22;9828;54.122;17.974;2023-10-31T02:46:44;10.50;99.90
19385;DHT22;9828;54.122;17.974;2023-10-31T02:52:05;10.50;99.90
19385;DHT22;9828;54.122;17.974;2023-10-31T02:57:27;10.60;99.90
19385;DHT22;9828;54.122;17.974;2023-10-31T03:02:48;10.60;99.90
19385;DHT22;9828;54.122;17.974;2023-10-31T03:08:09;10.60;99.90
19385;DHT22;9828;54.122;17.974;2023-10-31T03:13:32;10.60;99.90
19385;DHT22;9828;54.122;17.974;2023-10-31T03:18:54;10.60;99.90
19385;DHT22;9828;54.122;17.974;2023-10-31T03:24:15;10.60;99.90
19385;DHT22;9828;54.122;17.974;2023-10-31T03:29:36;10.70;99.90
19385;DHT22;9828;54.122;17.974;2023-10-31T03:34:58;10.70;99.90
19385;DHT22;9828;54.122;17.974;2023-10-31T03:40:19;10.80;99.90
19385;DHT22;9828;54.122;17.974;2023-10-31T03:45:40;10.80;99.90
19385;DHT22;9828;54.122;17.974;2023-10-31T03:51:02;10.80;99.90
19385;DHT22;9828;54.122;17.974;2023-10-31T03:56:23;10.70;99.90
19385;DHT22;9828;54.122;17.974;2023-10-31T04:01:44;10.70;99.90
19385;DHT22;9828;54.122;17.974;2023-10-31T04:07:06;10.70;99.90
19385;DHT22;9828;54.122;17.974;2023-10-31T04:12:27;10.80;99.90
19385;DHT22;9828;54.122;17.974;2023-10-31T04:17:48;10.80;99.90
19385;DHT22;9828;54.122;17.974;2023-10-31T04:23:10;10.90;99.90
19385;DHT22;9828;54.122;17.974;2023-10-31T04:28:32;10.80;99.90
19385;DHT22;9828;54.122;17.974;2023-10-31T04:33:54;10.80;99.90
19385;DHT22;9828;54.122;17.974;2023-10-31T04:39:15;10.80;99.90
19385;DHT22;9828;54.122;17.974;2023-10-31T04:44:36;10.70;99.90
19385;DHT22;9828;54.122;17.974;2023-10-31T04:49:57;10.80;99.90
19385;DHT22;9828;54.122;17.974;2023-10-31T04:55:18;10.80;99.90
19385;DHT22;9828;54.122;17.974;2023-10-31T05:00:39;10.70;99.90
19385;DHT22;9828;54.122;17.974;2023-10-31T05:06:01;10.70;99.90
19385;DHT22;9828;54.122;17.974;2023-10-31T05:11:22;10.80;99.90
19385;DHT22;9828;54.122;17.974;2023-10-31T05:16:44;10.80;99.90
19385;DHT22;9828;54.122;17.974;2023-10-31T05:22:05;10.80;99.90
19385;DHT22;9828;54.122;17.974;2023-10-31T05:27:26;10.80;99.90
19385;DHT22;9828;54.122;17.974;2023-10-31T05:32:49;10.80;99.90
19385;DHT22;9828;54.122;17.974;2023-10-31T05:38:10;10.80;99.90
19385;DHT22;9828;54.122;17.974;2023-10-31T05:43:31;10.80;99.90
19385;DHT22;9828;54.122;17.974;2023-10-31T05:48:54;10.80;99.90
19385;DHT22;9828;54.122;17.974;2023-10-31T05:54:16;10.80;99.90
19385;DHT22;9828;54.122;17.974;2023-10-31T05:59:37;10.80;99.90
19385;DHT22;9828;54.122;17.974;2023-10-31T06:04:58;10.70;99.90
19385;DHT22;9828;54.122;17.974;2023-10-31T06:10:20;10.80;99.90
19385;DHT22;9828;54.122;17.974;2023-10-31T06:15:42;10.70;99.90
19385;DHT22;9828;54.122;17.974;2023-10-31T06:21:04;10.70;99.90
19385;DHT22;9828;54.122;17.974;2023-10-31T06:26:25;10.70;99.90
19385;DHT22;9828;54.122;17.974;2023-10-31T06:31:46;10.70;99.90
19385;DHT22;9828;54.122;17.974;2023-10-31T06:37:08;10.70;99.90
19385;DHT22;9828;54.122;17.974;2023-10-31T06:42:30;10.80;99.90
19385;DHT22;9828;54.122;17.974;2023-10-31T06:47:51;10.80;99.90
19385;DHT22;9828;54.122;17.974;2023-10-31T06:53:12;10.90;99.90
19385;DHT22;9828;54.122;17.974;2023-10-31T06:58:33;10.90;99.90
19385;DHT22;9828;54.122;17.974;2023-10-31T07:03:54;10.90;99.90
19385;DHT22;9828;54.122;17.974;2023-10-31T07:09:16;10.90;99.90
19385;DHT22;9828;54.122;17.974;2023-10-31T07:14:40;10.90;99.90
19385;DHT22;9828;54.122;17.974;2023-10-31T07:20:01;10.90;99.90
19385;DHT22;9828;54.122;17.974;2023-10-31T07:25:22;10.90;99.90
19385;DHT22;9828;54.122;17.974;2023-10-31T07:30:44;11.00;99.90
19385;DHT22;9828;54.122;17.974;2023-10-31T07:36:05;11.00;99.90
19385;DHT22;9828;54.122;17.974;2023-10-31T07:41:27;11.00;99.90
19385;DHT22;9828;54.122;17.974;2023-10-31T07:46:48;11.10;99.90
19385;DHT22;9828;54.122;17.974;2023-10-31T07:52:10;11.10;99.90
19385;DHT22;9828;54.122;17.974;2023-10-31T07:57:31;11.20;99.90
19385;DHT22;9828;54.122;17.974;2023-10-31T08:02:52;11.20;99.90
19385;DHT22;9828;54.122;17.974;2023-10-31T08:08:13;11.20;99.90
19385;DHT22;9828;54.122;17.974;2023-10-31T08:13:39;11.20;99.90
19385;DHT22;9828;54.122;17.974;2023-10-31T08:19:00;11.30;99.90
19385;DHT22;9828;54.122;17.974;2023-10-31T08:24:21;11.30;99.90
19385;DHT22;9828;54.122;17.974;2023-10-31T08:29:42;11.30;99.90
19385;DHT22;9828;54.122;17.974;2023-10-31T08:35:04;11.30;99.90
19385;DHT22;9828;54.122;17.974;2023-10-31T08:40:25;11.40;99.90
19385;DHT22;9828;54.122;17.974;2023-10-31T08:45:46;11.40;99.90
19385;DHT22;9828;54.122;17.974;2023-10-31T08:51:08;11.50;99.90
19385;DHT22;9828;54.122;17.974;2023-10-31T08:56:29;11.60;99.90
19385;DHT22;9828;54.122;17.974;2023-10-31T09:01:50;11.60;99.90
19385;DHT22;9828;54.122;17.974;2023-10-31T09:07:12;11.70;99.90
19385;DHT22;9828;54.122;17.974;2023-10-31T09:12:33;11.80;99.90
19385;DHT22;9828;54.122;17.974;2023-10-31T09:17:54;11.80;99.90
19385;DHT22;9828;54.122;17.974;2023-10-31T09:23:16;11.90;99.90
19385;DHT22;9828;54.122;17.974;2023-10-31T09:28:38;11.90;99.90
19385;DHT22;9828;54.122;17.974;2023-10-31T09:34:01;12.00;99.90
19385;DHT22;9828;54.122;17.974;2023-10-31T09:39:24;12.00;99.90
19385;DHT22;9828;54.122;17.974;2023-10-31T09:44:46;11.90;99.90
19385;DHT22;9828;54.122;17.974;2023-10-31T09:50:08;12.10;99.90
19385;DHT22;9828;54.122;17.974;2023-10-31T09:55:30;12.10;99.90
19385;DHT22;9828;54.122;17.974;2023-10-31T10:00:51;12.10;99.90
19385;DHT22;9828;54.122;17.974;2023-10-31T10:06:13;12.10;99.90
19385;DHT22;9828;54.122;17.974;2023-10-31T10:11:35;12.20;99.90
19385;DHT22;9828;54.122;17.974;2023-10-31T10:16:56;12.30;99.90
19385;DHT22;9828;54.122;17.974;2023-10-31T10:22:20;12.40;99.90
19385;DHT22;9828;54.122;17.974;2023-10-31T10:27:44;12.40;99.90
19385;DHT22;9828;54.122;17.974;2023-10-31T10:33:06;12.40;99.90
19385;DHT22;9828;54.122;17.974;2023-10-31T10:38:29;12.50;99.90
19385;DHT22;9828;54.122;17.974;2023-10-31T10:44:07;12.40;99.90
19385;DHT22;9828;54.122;17.974;2023-10-31T10:49:29;12.50;99.90
19385;DHT22;9828;54.122;17.974;2023-10-31T10:55:04;12.50;99.90
19385;DHT22;9828;54.122;17.974;2023-10-31T11:00:25;12.50;99.90
19385;DHT22;9828;54.122;17.974;2023-10-31T11:05:47;12.60;99.90
19385;DHT22;9828;54.122;17.974;2023-10-31T11:11:08;12.60;99.90
19385;DHT22;9828;54.122;17.974;2023-10-31T11:16:40;12.60;99.90
19385;DHT22;9828;54.122;17.974;2023-10-31T11:22:03;12.60;99.90
19385;DHT22;9828;54.122;17.974;2023-10-31T11:27:26;12.60;99.90
19385;DHT22;9828;54.122;17.974;2023-10-31T11:33:34;12.70;99.90
19385;DHT22;9828;54.122;17.974;2023-10-31T11:38:37;12.50;99.90
19385;DHT22;9828;54.122;17.974;2023-10-31T11:43:59;12.60;99.90
19385;DHT22;9828;54.122;17.974;2023-10-31T11:49:56;12.50;99.90
19385;DHT22;9828;54.122;17.974;2023-10-31T11:55:17;12.50;99.90
19385;DHT22;9828;54.122;17.974;2023-10-31T12:00:38;12.50;99.90
19385;DHT22;9828;54.122;17.974;2023-10-31T12:05:59;12.50;99.90
19385;DHT22;9828;54.122;17.974;2023-10-31T12:11:22;12.40;99.90
19385;DHT22;9828;54.122;17.974;2023-10-31T12:16:44;12.50;99.90
19385;DHT22;9828;54.122;17.974;2023-10-31T12:22:15;12.50;99.90
19385;DHT22;9828;54.122;17.974;2023-10-31T12:33:05;12.50;99.90
19385;DHT22;9828;54.122;17.974;2023-10-31T12:38:27;12.40;99.90
19385;DHT22;9828;54.122;17.974;2023-10-31T12:43:49;12.40;99.90
19385;DHT22;9828;54.122;17.974;2023-10-31T12:49:18;12.40;99.90
19385;DHT22;9828;54.122;17.974;2023-10-31T12:54:40;12.40;99.90
19385;DHT22;9828;54.122;17.974;2023-10-31T13:00:01;12.50;99.90
19385;DHT22;9828;54.122;17.974;2023-10-31T13:05:25;12.40;99.90
19385;DHT22;9828;54.122;17.974;2023-10-31T13:10:47;12.40;99.90
19385;DHT22;9828;54.122;17.974;2023-10-31T13:16:08;12.40;99.90
19385;DHT22;9828;54.122;17.974;2023-10-31T13:21:30;12.40;99.90
19385;DHT22;9828;54.122;17.974;2023-10-31T13:26:51;12.40;99.90
19385;DHT22;9828;54.122;17.974;2023-10-31T13:32:13;12.40;99.90
19385;DHT22;9828;54.122;17.974;2023-10-31T13:37:34;12.30;99.90
19385;DHT22;9828;54.122;17.974;2023-10-31T13:42:57;12.30;99.90
19385;DHT22;9828;54.122;17.974;2023-10-31T13:48:18;12.30;99.90
19385;DHT22;9828;54.122;17.974;2023-10-31T13:53:40;12.30;99.90
19385;DHT22;9828;54.122;17.974;2023-10-31T13:59:01;12.30;99.90
19385;DHT22;9828;54.122;17.974;2023-10-31T14:04:22;12.30;99.90
19385;DHT22;9828;54.122;17.974;2023-10-31T14:09:44;12.30;99.90
19385;DHT22;9828;54.122;17.974;2023-10-31T14:15:06;12.20;99.90
19385;DHT22;9828;54.122;17.974;2023-10-31T14:20:27;12.30;99.90
19385;DHT22;9828;54.122;17.974;2023-10-31T14:25:49;12.30;99.90
19385;DHT22;9828;54.122;17.974;2023-10-31T14:31:10;12.20;99.90
19385;DHT22;9828;54.122;17.974;2023-10-31T14:36:32;12.20;99.90
19385;DHT22;9828;54.122;17.974;2023-10-31T14:41:53;12.20;99.90
19385;DHT22;9828;54.122;17.974;2023-10-31T14:47:16;12.20;99.90
19385;DHT22;9828;54.122;17.974;2023-10-31T14:52:37;12.10;99.90
19385;DHT22;9828;54.122;17.974;2023-10-31T14:57:59;12.10;99.90
19385;DHT22;9828;54.122;17.974;2023-10-31T15:03:20;12.10;99.90
19385;DHT22;9828;54.122;17.974;2023-10-31T15:08:41;12.10;99.90
19385;DHT22;9828;54.122;17.974;2023-10-31T15:14:03;12.00;99.90
19385;DHT22;9828;54.122;17.974;2023-10-31T15:19:24;11.90;99.90
19385;DHT22;9828;54.122;17.974;2023-10-31T15:24:47;11.70;99.90
19385;DHT22;9828;54.122;17.974;2023-10-31T15:30:08;11.60;99.90
19385;DHT22;9828;54.122;17.974;2023-10-31T15:35:30;11.50;99.90
19385;DHT22;9828;54.122;17.974;2023-10-31T15:40:53;11.40;99.90
19385;DHT22;9828;54.122;17.974;2023-10-31T15:46:17;11.30;99.90
19385;DHT22;9828;54.122;17.974;2023-10-31T15:51:40;11.30;99.90
19385;DHT22;9828;54.122;17.974;2023-10-31T15:57:02;11.20;99.90
19385;DHT22;9828;54.122;17.974;2023-10-31T16:02:23;11.10;99.90
19385;DHT22;9828;54.122;17.974;2023-10-31T16:07:45;11.00;99.90
19385;DHT22;9828;54.122;17.974;2023-10-31T16:13:06;10.90;99.90
19385;DHT22;9828;54.122;17.974;2023-10-31T16:18:27;10.90;99.90
19385;DHT22;9828;54.122;17.974;2023-10-31T16:23:50;10.90;99.90
19385;DHT22;9828;54.122;17.974;2023-10-31T16:29:13;10.90;99.90
19385;DHT22;9828;54.122;17.974;2023-10-31T16:34:36;10.80;99.90
19385;DHT22;9828;54.122;17.974;2023-10-31T16:39:57;10.80;99.90
19385;DHT22;9828;54.122;17.974;2023-10-31T16:45:18;10.80;99.90
19385;DHT22;9828;54.122;17.974;2023-10-31T16:50:39;10.80;99.90
19385;DHT22;9828;54.122;17.974;2023-10-31T16:56:00;10.80;99.90
19385;DHT22;9828;54.122;17.974;2023-10-31T17:01:22;10.80;99.90
19385;DHT22;9828;54.122;17.974;2023-10-31T17:06:43;10.70;99.90
19385;DHT22;9828;54.122;17.974;2023-10-31T17:12:05;10.70;99.90
19385;DHT22;9828;54.122;17.974;2023-10-31T17:17:26;10.70;99.90
19385;DHT22;9828;54.122;17.974;2023-10-31T17:22:47;10.70;99.90
19385;DHT22;9828;54.122;17.974;2023-10-31T17:28:09;10.70;99.90
19385;DHT22;9828;54.122;17.974;2023-10-31T17:33:30;10.70;99.90
19385;DHT22;9828;54.122;17.974;2023-10-31T17:38:51;10.60;99.90
19385;DHT22;9828;54.122;17.974;2023-10-31T17:44:13;10.60;99.90
19385;DHT22;9828;54.122;17.974;2023-10-31T17:49:34;10.70;99.90
19385;DHT22;9828;54.122;17.974;2023-10-31T17:54:55;10.60;99.90
19385;DHT22;9828;54.122;17.974;2023-10-31T18:00:16;10.60;99.90
19385;DHT22;9828;54.122;17.974;2023-10-31T18:05:39;10.60;99.90
19385;DHT22;9828;54.122;17.974;2023-10-31T18:11:00;10.50;99.90
19385;DHT22;9828;54.122;17.974;2023-10-31T18:16:22;10.60;99.90
19385;DHT22;9828;54.122;17.974;2023-10-31T18:21:43;10.60;99.90
19385;DHT22;9828;54.122;17.974;2023-10-31T18:27:04;10.60;99.90
19385;DHT22;9828;54.122;17.974;2023-10-31T18:32:28;10.60;99.90
19385;DHT22;9828;54.122;17.974;2023-10-31T18:37:49;10.50;99.90
19385;DHT22;9828;54.122;17.974;2023-10-31T18:43:10;10.50;99.90
19385;DHT22;9828;54.122;17.974;2023-10-31T18:48:32;10.60;99.90
19385;DHT22;9828;54.122;17.974;2023-10-31T18:53:54;10.50;99.90
19385;DHT22;9828;54.122;17.974;2023-10-31T18:59:15;10.50;99.90
19385;DHT22;9828;54.122;17.974;2023-10-31T19:04:36;10.40;99.90
19385;DHT22;9828;54.122;17.974;2023-10-31T19:09:57;10.40;99.90
19385;DHT22;9828;54.122;17.974;2023-10-31T19:15:19;10.40;99.90
19385;DHT22;9828;54.122;17.974;2023-10-31T19:20:40;10.40;99.90
19385;DHT22;9828;54.122;17.974;2023-10-31T19:26:01;10.50;99.90
19385;DHT22;9828;54.122;17.974;2023-10-31T19:31:23;10.40;99.90
19385;DHT22;9828;54.122;17.974;2023-10-31T19:36:44;10.30;99.90
19385;DHT22;9828;54.122;17.974;2023-10-31T19:42:05;10.30;99.90
19385;DHT22;9828;54.122;17.974;2023-10-31T19:47:27;10.20;99.90
19385;DHT22;9828;54.122;17.974;2023-10-31T19:52:48;10.30;99.90
19385;DHT22;9828;54.122;17.974;2023-10-31T19:58:09;10.20;99.90
19385;DHT22;9828;54.122;17.974;2023-10-31T20:03:30;10.10;99.90
19385;DHT22;9828;54.122;17.974;2023-10-31T20:08:51;10.00;99.90
19385;DHT22;9828;54.122;17.974;2023-10-31T20:14:14;9.90;99.90
19385;DHT22;9828;54.122;17.974;2023-10-31T20:19:35;9.90;99.90
19385;DHT22;9828;54.122;17.974;2023-10-31T20:24:56;9.90;99.90
19385;DHT22;9828;54.122;17.974;2023-10-31T20:30:17;9.80;99.90
19385;DHT22;9828;54.122;17.974;2023-10-31T20:35:39;9.70;99.90
19385;DHT22;9828;54.122;17.974;2023-10-31T20:41:00;9.60;99.90
19385;DHT22;9828;54.122;17.974;2023-10-31T20:46:22;9.50;99.90
19385;DHT22;9828;54.122;17.974;2023-10-31T20:51:43;9.50;99.90
19385;DHT22;9828;54.122;17.974;2023-10-31T20:57:05;9.50;99.90
19385;DHT22;9828;54.122;17.974;2023-10-31T21:02:25;9.40;99.90
19385;DHT22;9828;54.122;17.974;2023-10-31T21:07:47;9.30;99.90
19385;DHT22;9828;54.122;17.974;2023-10-31T21:13:08;9.30;99.90
19385;DHT22;9828;54.122;17.974;2023-10-31T21:18:29;9.20;99.90
19385;DHT22;9828;54.122;17.974;2023-10-31T21:23:50;9.20;99.90
19385;DHT22;9828;54.122;17.974;2023-10-31T21:29:13;9.20;99.90
19385;DHT22;9828;54.122;17.974;2023-10-31T21:34:34;9.10;99.90
19385;DHT22;9828;54.122;17.974;2023-10-31T21:39:55;9.10;99.90
19385;DHT22;9828;54.122;17.974;2023-10-31T21:45:16;9.10;99.90
19385;DHT22;9828;54.122;17.974;2023-10-31T21:50:37;9.00;99.90
19385;DHT22;9828;54.122;17.974;2023-10-31T21:55:58;8.90;99.90
19385;DHT22;9828;54.122;17.974;2023-10-31T22:01:20;8.90;99.90
19385;DHT22;9828;54.122;17.974;2023-10-31T22:06:41;8.90;99.90
19385;DHT22;9828;54.122;17.974;2023-10-31T22:12:03;8.90;99.90
19385;DHT22;9828;54.122;17.974;2023-10-31T22:17:25;8.80;99.90
19385;DHT22;9828;54.122;17.974;2023-10-31T22:22:46;8.70;99.90
19385;DHT22;9828;54.122;17.974;2023-10-31T22:28:07;8.70;99.90
19385;DHT22;9828;54.122;17.974;2023-10-31T22:33:28;8.60;99.90
19385;DHT22;9828;54.122;17.974;2023-10-31T22:38:49;8.50;99.90
19385;DHT22;9828;54.122;17.974;2023-10-31T22:44:11;8.40;99.90
19385;DHT22;9828;54.122;17.974;2023-10-31T22:49:32;8.40;99.90
19385;DHT22;9828;54.122;17.974;2023-10-31T22:54:53;8.50;99.90
19385;DHT22;9828;54.122;17.974;2023-10-31T23:00:14;8.40;99.90
19385;DHT22;9828;54.122;17.974;2023-10-31T23:05:42;8.30;99.90
19385;DHT22;9828;54.122;17.974;2023-10-31T23:21:49;8.30;99.90
19385;DHT22;9828;54.122;17.974;2023-10-31T23:27:31;8.20;99.90
19385;DHT22;9828;54.122;17.974;2023-10-31T23:32:53;8.20;99.90
19385;DHT22;9828;54.122;17.974;2023-10-31T23:38:14;8.10;99.90
19385;DHT22;9828;54.122;17.974;2023-10-31T23:43:35;8.30;99.90
19385;DHT22;9828;54.122;17.974;2023-10-31T23:54:18;7.90;99.90
19385;DHT22;9828;54.122;17.974;2023-10-31T23:59:39;7.90;99.90
